Widnes, United Kingdom
Current Conditions -  °F | °C
As of 9:20 PM on Saturday 20 Dec 2014 (Local Time) from EGGP Reporting Station
Broken Clouds Broken Clouds  
Wind Chill: 41°   Ceiling: 4200
Heat Index: 46°   Visibility: 6mi
Dew Point: 39°   Wind: 12mph
Humidity: 76%   Direction: 250°WSW
Pressure: 30.36"   Gusts: NA
Location:  53.36°N, 2.73°W
Report Text: EGGP 202120Z 25010KT 9999 BKN042 08/04 Q1028
Loading
Personal Weather Stations






























Interactive Weather Map New forecast layout! Learn more

10-Day Weather Forecast

Advertisements
Track Severe Weather on mobile